createdAt,value
2023-05-02T00:02:20.051Z,40.22
2023-05-02T00:04:47.251Z,40.31
2023-05-02T00:07:14.432Z,40.32
2023-05-02T00:09:41.928Z,40.36
2023-05-02T00:12:09.108Z,40.21
2023-05-02T00:14:36.281Z,40.27
2023-05-02T00:17:03.589Z,40.16
2023-05-02T00:19:30.780Z,40.44
2023-05-02T00:21:58.011Z,40.59
2023-05-02T00:24:25.203Z,40.35
2023-05-02T00:26:52.387Z,40.18
2023-05-02T00:29:19.606Z,40.29
2023-05-02T00:31:46.754Z,40.34
2023-05-02T00:34:13.952Z,40.27
2023-05-02T00:36:41.340Z,40.30
2023-05-02T00:39:08.515Z,40.30
2023-05-02T00:41:35.674Z,40.35
2023-05-02T00:44:02.876Z,40.45
2023-05-02T00:46:30.536Z,40.35
2023-05-02T00:48:57.872Z,40.26
2023-05-02T00:51:25.076Z,40.47
2023-05-02T00:53:52.463Z,40.39
2023-05-02T00:56:19.657Z,40.50
2023-05-02T00:58:47.379Z,40.40
2023-05-02T01:01:30.271Z,40.22
2023-05-02T01:04:24.056Z,40.35
2023-05-02T01:07:17.765Z,40.37
2023-05-02T01:10:02.531Z,40.50
2023-05-02T01:12:42.855Z,40.27
2023-05-02T01:15:12.536Z,40.51
2023-05-02T01:17:39.987Z,40.51
2023-05-02T01:20:11.472Z,40.55
2023-05-02T01:22:42.380Z,40.37
2023-05-02T01:25:30.890Z,40.41
2023-05-02T01:28:35.038Z,40.53
2023-05-02T01:31:04.499Z,40.45
2023-05-02T01:33:32.539Z,40.34
2023-05-02T01:36:01.659Z,40.45
2023-05-02T01:38:29.696Z,40.68
2023-05-02T01:40:58.310Z,40.52
2023-05-02T01:43:26.820Z,40.58
2023-05-02T01:45:55.121Z,40.42
2023-05-02T01:48:22.852Z,40.49
2023-05-02T01:50:51.269Z,40.58
2023-05-02T01:53:18.728Z,40.68
2023-05-02T01:55:46.629Z,40.58
2023-05-02T01:58:14.957Z,40.40
2023-05-02T02:00:45.101Z,40.75
2023-05-02T02:03:13.246Z,40.64
2023-05-02T02:05:40.924Z,40.47
2023-05-02T02:08:08.917Z,40.59
2023-05-02T02:10:45.876Z,40.58
2023-05-02T02:13:24.935Z,40.53
2023-05-02T02:15:57.732Z,40.64
2023-05-02T02:18:26.530Z,40.59
2023-05-02T02:20:57.423Z,40.41
2023-05-02T02:23:27.241Z,40.48
2023-05-02T02:25:55.644Z,40.51
2023-05-02T02:28:23.070Z,40.53
2023-05-02T02:30:50.312Z,40.70
2023-05-02T02:33:17.883Z,40.53
2023-05-02T02:35:50.552Z,40.61
2023-05-02T02:38:31.746Z,40.45
2023-05-02T02:41:27.672Z,40.63
2023-05-02T02:44:16.392Z,40.69
2023-05-02T02:47:06.463Z,40.55
2023-05-02T02:49:48.181Z,40.58
2023-05-02T02:52:30.229Z,40.55
2023-05-02T02:54:58.727Z,40.52
2023-05-02T02:57:33.574Z,40.70
2023-05-02T03:00:22.502Z,40.54
2023-05-02T03:02:49.716Z,40.68
2023-05-02T03:05:17.512Z,40.71
2023-05-02T03:07:44.774Z,40.63
2023-05-02T03:10:12.233Z,40.59
2023-05-02T03:12:42.081Z,40.64
2023-05-02T03:15:48.468Z,40.74
2023-05-02T03:18:16.452Z,40.71
2023-05-02T03:20:43.778Z,40.73
2023-05-02T03:23:11.006Z,40.66
2023-05-02T03:25:39.063Z,40.69
2023-05-02T03:28:06.299Z,40.73
2023-05-02T03:30:33.494Z,40.80
2023-05-02T03:33:01.708Z,40.74
2023-05-02T03:35:28.978Z,40.91
2023-05-02T03:37:56.168Z,40.82
2023-05-02T03:40:23.446Z,40.89
2023-05-02T03:42:50.619Z,40.98
2023-05-02T03:45:17.920Z,40.92
2023-05-02T03:47:45.315Z,40.90
2023-05-02T03:50:12.534Z,40.92
2023-05-02T03:52:39.767Z,40.94
2023-05-02T03:55:08.121Z,40.90
2023-05-02T03:57:35.361Z,41.00
2023-05-02T04:00:02.893Z,40.93
2023-05-02T04:02:30.750Z,40.94
2023-05-02T04:04:58.086Z,40.92
2023-05-02T04:07:25.918Z,40.81
2023-05-02T04:09:53.127Z,40.85
2023-05-02T04:12:23.538Z,40.88
2023-05-02T04:14:50.761Z,40.83
2023-05-02T04:17:18.268Z,40.95
2023-05-02T04:19:45.759Z,40.73
2023-05-02T04:22:12.954Z,41.01
2023-05-02T04:24:40.141Z,41.04
2023-05-02T04:27:07.853Z,40.95
2023-05-02T04:29:35.043Z,40.89
2023-05-02T04:32:02.533Z,41.17
2023-05-02T04:34:30.328Z,40.94
2023-05-02T04:37:02.325Z,41.00
2023-05-02T04:39:29.568Z,41.09
2023-05-02T04:41:56.865Z,41.10
2023-05-02T04:44:24.053Z,40.96
2023-05-02T04:46:51.417Z,41.00
2023-05-02T04:49:18.728Z,40.94
2023-05-02T04:51:46.202Z,41.09
2023-05-02T04:54:13.937Z,41.12
2023-05-02T04:56:41.177Z,41.18
2023-05-02T04:59:08.342Z,41.13
2023-05-02T05:01:35.620Z,41.21
2023-05-02T05:04:03.660Z,41.39
2023-05-02T05:06:32.020Z,41.36
2023-05-02T05:08:59.394Z,41.22
2023-05-02T05:11:26.861Z,41.42
2023-05-02T05:13:54.074Z,41.33
2023-05-02T05:16:21.555Z,41.53
2023-05-02T05:18:49.497Z,41.37
2023-05-02T05:21:18.992Z,41.35
2023-05-02T05:23:47.551Z,41.55
2023-05-02T05:26:16.020Z,41.53
2023-05-02T05:28:43.966Z,41.45
2023-05-02T05:31:18.125Z,41.54
2023-05-02T05:33:47.303Z,41.38
2023-05-02T05:36:15.344Z,41.72
2023-05-02T05:38:42.754Z,41.81
2023-05-02T05:41:16.215Z,41.93
2023-05-02T05:43:43.511Z,41.79
2023-05-02T05:46:10.793Z,41.95
2023-05-02T05:48:38.043Z,43.66
2023-05-02T05:51:05.804Z,43.47
2023-05-02T05:53:33.444Z,43.73
2023-05-02T05:56:07.923Z,43.60
2023-05-02T05:58:35.170Z,43.14
2023-05-02T06:01:02.552Z,42.97
2023-05-02T06:03:30.081Z,42.91
2023-05-02T06:05:57.427Z,43.17
2023-05-02T06:08:24.600Z,43.11
2023-05-02T06:10:51.778Z,43.30
2023-05-02T06:13:18.954Z,43.28
2023-05-02T06:15:46.266Z,42.90
2023-05-02T06:18:13.911Z,42.57
2023-05-02T06:20:41.262Z,42.66
2023-05-02T06:23:08.662Z,42.53
2023-05-02T06:25:38.333Z,42.76
2023-05-02T06:28:06.054Z,42.93
2023-05-02T06:30:33.246Z,42.73
2023-05-02T06:33:00.728Z,42.70
2023-05-02T06:35:27.958Z,42.73
2023-05-02T06:37:55.296Z,42.77
2023-05-02T06:40:22.612Z,42.55
2023-05-02T06:42:49.785Z,42.55
2023-05-02T06:45:17.014Z,42.55
2023-05-02T06:47:44.188Z,42.56
2023-05-02T06:50:11.778Z,42.75
2023-05-02T06:52:39.039Z,42.81
2023-05-02T06:55:09.699Z,42.96
2023-05-02T18:58:01.818Z,44.19
2023-05-02T19:00:31.514Z,44.47
2023-05-02T19:02:59.056Z,44.13
2023-05-02T19:05:27.507Z,43.78
2023-05-02T19:07:54.785Z,42.83
2023-05-02T19:10:22.032Z,43.53
2023-05-02T19:12:52.170Z,43.42
2023-05-02T19:15:19.383Z,43.23
2023-05-02T19:17:46.573Z,43.28
2023-05-02T19:20:14.034Z,42.96
2023-05-02T19:22:46.050Z,43.04
2023-05-02T19:25:14.299Z,43.17
2023-05-02T19:27:42.276Z,42.84
2023-05-02T19:30:10.140Z,43.19
2023-05-02T19:32:39.677Z,43.76
2023-05-02T19:35:08.871Z,43.83
2023-05-02T19:37:36.666Z,44.19
2023-05-02T19:40:05.126Z,44.24
2023-05-02T19:42:32.331Z,44.69
2023-05-02T19:44:59.910Z,44.75
2023-05-02T19:47:27.531Z,44.74
2023-05-02T19:49:54.912Z,45.01
2023-05-02T19:52:22.417Z,45.16
2023-05-02T19:54:51.396Z,45.35
2023-05-02T19:57:18.550Z,45.23
2023-05-02T19:59:46.123Z,43.26
2023-05-02T20:02:13.415Z,42.17
2023-05-02T20:04:41.238Z,41.69
2023-05-02T20:07:08.500Z,41.89
2023-05-02T20:09:35.994Z,41.34
2023-05-02T20:12:03.607Z,41.25
2023-05-02T20:14:31.810Z,40.78
2023-05-02T20:17:01.715Z,40.85
2023-05-02T20:19:32.274Z,40.26
2023-05-02T20:21:59.609Z,40.29
2023-05-02T20:24:27.153Z,40.17
2023-05-02T20:26:54.386Z,40.01
2023-05-02T20:29:21.696Z,40.12
2023-05-02T20:31:48.972Z,39.84
2023-05-02T20:34:16.369Z,39.69
2023-05-02T20:36:43.718Z,39.42
2023-05-02T20:39:12.215Z,41.29
2023-05-02T20:41:40.089Z,41.67
2023-05-02T20:44:07.407Z,41.54
2023-05-02T20:46:37.117Z,41.50
2023-05-02T20:49:05.688Z,41.28
2023-05-02T20:51:33.063Z,41.49
2023-05-02T20:54:00.678Z,41.70
2023-05-02T20:56:27.948Z,41.42
2023-05-02T20:58:55.686Z,41.60
2023-05-02T21:01:23.055Z,41.76
2023-05-02T21:03:50.416Z,41.84
2023-05-02T21:06:20.064Z,41.85
2023-05-02T21:08:47.369Z,41.88
2023-05-02T21:11:15.438Z,42.46
2023-05-02T21:13:43.941Z,42.10
2023-05-02T21:16:18.541Z,42.14
2023-05-02T21:18:46.902Z,42.19
2023-05-02T21:21:14.366Z,42.05
2023-05-02T21:23:41.529Z,42.04
2023-05-02T21:26:08.888Z,42.15
2023-05-02T21:28:37.934Z,41.93
2023-05-02T21:31:06.111Z,42.09
2023-05-02T21:33:33.420Z,41.90
2023-05-02T21:36:01.370Z,41.95
2023-05-02T21:38:28.958Z,41.92
2023-05-02T21:40:56.416Z,42.05
2023-05-02T21:43:23.909Z,42.03
2023-05-02T21:45:51.207Z,42.02
2023-05-02T21:48:18.370Z,41.96
2023-05-02T21:50:45.935Z,42.02
2023-05-02T21:53:13.218Z,41.94
2023-05-02T21:55:40.982Z,42.17
2023-05-02T21:58:09.275Z,41.91
2023-05-02T22:00:40.718Z,42.01
2023-05-02T22:03:11.487Z,42.05
2023-05-02T22:05:42.413Z,41.85
2023-05-02T22:08:11.129Z,41.86
2023-05-02T22:10:39.601Z,42.01
2023-05-02T22:13:09.992Z,42.05
2023-05-02T22:15:37.745Z,42.15
2023-05-02T22:18:06.794Z,42.19
2023-05-02T22:20:34.200Z,42.11
2023-05-02T22:23:01.422Z,42.11
2023-05-02T22:25:28.930Z,42.12
2023-05-02T22:27:56.213Z,41.96
2023-05-02T22:30:23.757Z,42.16
2023-05-02T22:32:51.242Z,41.93
2023-05-02T22:35:18.581Z,41.99
2023-05-02T22:37:45.794Z,41.95
2023-05-02T22:40:13.706Z,42.13
2023-05-02T22:42:41.051Z,42.20
2023-05-02T22:45:09.447Z,42.16
2023-05-02T22:47:37.258Z,41.96
2023-05-02T22:50:13.137Z,42.26
2023-05-02T22:52:42.972Z,42.17
2023-05-02T22:55:10.530Z,42.18
2023-05-02T22:57:38.121Z,42.12
2023-05-02T23:00:07.321Z,42.15
2023-05-02T23:02:34.654Z,42.10
2023-05-02T23:05:02.426Z,42.25
2023-05-02T23:07:29.659Z,42.24
2023-05-02T23:09:56.834Z,42.10
2023-05-02T23:12:24.033Z,42.26
2023-05-02T23:14:51.229Z,42.48
2023-05-02T23:17:18.402Z,42.35
2023-05-02T23:19:45.868Z,42.50
2023-05-02T23:22:13.022Z,42.48
2023-05-02T23:24:40.282Z,42.45
2023-05-02T23:27:07.740Z,42.46
2023-05-02T23:29:35.131Z,42.53
2023-05-02T23:32:02.411Z,42.56
2023-05-02T23:34:31.282Z,42.45
2023-05-02T23:36:58.498Z,42.65
2023-05-02T23:39:26.553Z,42.32
2023-05-02T23:41:53.722Z,42.41
2023-05-02T23:44:20.973Z,42.39
2023-05-02T23:46:48.173Z,42.45
2023-05-02T23:49:15.429Z,42.47
2023-05-02T23:51:42.694Z,42.55
2023-05-02T23:54:09.846Z,42.40
2023-05-02T23:56:37.155Z,42.38
2023-05-02T23:59:04.531Z,42.56
